createdAt,value
2018-07-16T00:02:23.501Z,101738.19
2018-07-16T00:04:51.489Z,101738.19
2018-07-16T00:07:19.524Z,101732.46
2018-07-16T00:09:47.261Z,101736.47
2018-07-16T00:12:15.153Z,101730.78
2018-07-16T00:14:43.138Z,101725.94
2018-07-16T00:17:11.476Z,101733.02
2018-07-16T00:19:39.438Z,101729.14
2018-07-16T00:22:07.118Z,101726.98
2018-07-16T00:24:34.769Z,101723.02
2018-07-16T00:27:02.656Z,101726.17
2018-07-16T00:29:30.646Z,101726.66
2018-07-16T00:31:58.740Z,101728.86
2018-07-16T00:34:26.693Z,101728.90
2018-07-16T00:36:54.348Z,101728.94
2018-07-16T00:39:22.498Z,101728.50
2018-07-16T00:41:50.161Z,101727.17
2018-07-16T00:44:17.846Z,101732.06
2018-07-16T00:46:45.483Z,101727.25
2018-07-16T00:49:13.136Z,101729.90
2018-07-16T00:51:40.832Z,101725.13
2018-07-16T00:54:08.449Z,101723.81
2018-07-16T00:56:36.228Z,101718.12
2018-07-16T00:59:03.951Z,101713.72
2018-07-16T01:01:31.657Z,101710.63
2018-07-16T01:03:59.357Z,101722.16
2018-07-16T01:06:27.359Z,101715.08
2018-07-16T01:08:55.503Z,101717.80
2018-07-16T01:11:23.173Z,101716.91
2018-07-16T01:13:50.966Z,101717.80
2018-07-16T01:16:18.617Z,101710.75
2018-07-16T01:18:46.730Z,101717.43
2018-07-16T01:21:14.414Z,101721.84
2018-07-16T01:23:42.065Z,101715.67
2018-07-16T01:26:11.610Z,101719.28
2018-07-16T01:28:40.086Z,101720.59
2018-07-16T01:31:08.624Z,101717.11
2018-07-16T01:33:36.312Z,101717.95
2018-07-16T01:36:04.050Z,101716.27
2018-07-16T01:38:31.847Z,101713.66
2018-07-16T01:40:59.597Z,101714.11
2018-07-16T01:43:27.275Z,101712.83
2018-07-16T01:45:54.913Z,101707.94
2018-07-16T01:48:23.153Z,101708.42
2018-07-16T01:50:51.159Z,101704.02
2018-07-16T01:53:19.210Z,101704.89
2018-07-16T01:55:46.919Z,101697.00
2018-07-16T01:58:14.593Z,101693.52
2018-07-16T02:00:57.335Z,101690.87
2018-07-16T02:03:27.105Z,101688.75
2018-07-16T02:05:55.402Z,101694.44
2018-07-16T02:08:23.785Z,101697.08
2018-07-16T02:10:52.042Z,101694.03
2018-07-16T02:13:19.980Z,101693.20
2018-07-16T02:15:48.275Z,101690.16
2018-07-16T02:18:16.317Z,101693.27
2018-07-16T02:20:44.769Z,101696.88
2018-07-16T02:23:12.910Z,101701.72
2018-07-16T02:25:40.943Z,101691.67
2018-07-16T02:28:09.496Z,101691.67
2018-07-16T02:30:37.853Z,101690.34
2018-07-16T02:33:05.537Z,101689.02
2018-07-16T02:35:33.197Z,101691.30
2018-07-16T02:38:00.951Z,101686.02
2018-07-16T02:40:29.225Z,101687.37
2018-07-16T02:42:56.899Z,101680.81
2018-07-16T02:45:24.818Z,101684.73
2018-07-16T02:47:52.475Z,101687.86
2018-07-16T02:50:20.385Z,101686.14
2018-07-16T02:52:48.123Z,101683.09
2018-07-16T02:55:15.758Z,101684.41
2018-07-16T02:57:43.478Z,101689.25
2018-07-16T03:00:11.470Z,101687.13
2018-07-16T03:02:40.373Z,101689.77
2018-07-16T03:05:12.529Z,101683.56
2018-07-16T03:07:40.515Z,101680.92
2018-07-16T03:10:08.717Z,101678.36
2018-07-16T03:12:36.438Z,101678.80
2018-07-16T03:15:04.642Z,101680.56
2018-07-16T03:17:32.577Z,101684.59
2018-07-16T03:20:00.231Z,101681.48
2018-07-16T03:22:27.945Z,101681.04
2018-07-16T03:24:55.621Z,101681.48
2018-07-16T03:27:23.323Z,101682.36
2018-07-16T03:29:51.324Z,101685.92
2018-07-16T03:32:19.384Z,101681.52
2018-07-16T03:34:47.169Z,101687.28
2018-07-16T03:37:15.170Z,101684.16
2018-07-16T03:39:42.878Z,101685.92
2018-07-16T03:42:10.807Z,101686.84
2018-07-16T03:44:39.046Z,101687.28
2018-07-16T03:47:06.725Z,101685.48
2018-07-16T03:49:34.760Z,101684.16
2018-07-16T03:52:02.414Z,101684.59
2018-07-16T03:54:30.284Z,101684.16
2018-07-16T03:56:57.847Z,101678.88
2018-07-16T03:59:25.603Z,101684.59
2018-07-16T04:01:53.695Z,101686.36
2018-07-16T04:04:21.360Z,101678.47
2018-07-16T04:06:49.052Z,101677.55
2018-07-16T04:09:16.968Z,101679.31
2018-07-16T04:11:44.952Z,101677.99
2018-07-16T04:14:12.605Z,101678.03
2018-07-16T04:16:40.318Z,101677.16
2018-07-16T04:19:08.268Z,101674.51
2018-07-16T04:21:35.994Z,101681.55
2018-07-16T04:24:03.852Z,101680.71
2018-07-16T04:26:31.521Z,101687.31
2018-07-16T04:28:59.554Z,101683.80
2018-07-16T04:31:27.805Z,101683.80
2018-07-16T04:33:55.498Z,101683.35
2018-07-16T04:36:23.176Z,101682.44
2018-07-16T04:38:50.894Z,101678.47
2018-07-16T04:41:18.578Z,101682.84
2018-07-16T04:43:46.862Z,101680.20
2018-07-16T04:46:14.529Z,101681.95
2018-07-16T04:48:42.161Z,101687.17
2018-07-16T04:51:10.434Z,101687.61
2018-07-16T04:53:38.461Z,101678.91
2018-07-16T04:56:06.169Z,101684.48
2018-07-16T04:58:33.854Z,101684.45
2018-07-16T05:01:01.553Z,101677.36
2018-07-16T05:03:29.335Z,101675.56
2018-07-16T05:05:57.216Z,101679.05
2018-07-16T05:08:24.892Z,101681.21
2018-07-16T05:10:52.620Z,101676.36
2018-07-16T05:13:20.262Z,101682.05
2018-07-16T05:15:48.378Z,101676.29
2018-07-16T05:18:16.444Z,101681.53
2018-07-16T05:20:44.032Z,101681.50
2018-07-16T05:23:12.386Z,101684.14
2018-07-16T05:25:40.293Z,101680.94
2018-07-16T05:28:08.046Z,101681.82
2018-07-16T05:30:35.694Z,101672.12
2018-07-16T05:33:03.717Z,101668.61
2018-07-16T05:35:31.405Z,101672.94
2018-07-16T05:37:59.360Z,101667.61
2018-07-16T05:40:27.294Z,101668.01
2018-07-16T05:42:55.259Z,101671.05
2018-07-16T05:45:22.919Z,101676.77
2018-07-16T05:47:50.574Z,101670.53
2018-07-16T05:50:18.749Z,101676.22
2018-07-16T05:52:46.441Z,101672.21
2018-07-16T05:55:14.166Z,101676.58
2018-07-16T05:57:42.069Z,101676.53
2018-07-16T06:00:10.077Z,101675.17
2018-07-16T06:02:37.837Z,101681.27
2018-07-16T06:05:05.718Z,101672.42
2018-07-16T06:07:33.638Z,101673.70
2018-07-16T06:10:01.717Z,101671.01
2018-07-16T06:12:29.394Z,101673.21
2018-07-16T06:14:57.408Z,101561.11
2018-07-16T06:17:25.625Z,101671.77
2018-07-16T06:19:53.302Z,101674.85
2018-07-16T06:22:20.995Z,101673.53
2018-07-16T06:24:48.907Z,101674.33
2018-07-16T06:27:16.549Z,101673.41
2018-07-16T06:29:44.535Z,101675.57
2018-07-16T06:32:12.514Z,101671.56
2018-07-16T06:34:40.221Z,101666.67
2018-07-16T06:37:08.314Z,101669.23
2018-07-16T06:39:36.010Z,101661.70
2018-07-16T06:42:03.733Z,101667.84
2018-07-16T06:44:31.382Z,101658.14
2018-07-16T06:46:59.406Z,101657.17
2018-07-16T06:49:27.402Z,101655.36
2018-07-16T06:51:55.102Z,101650.92
2018-07-16T06:54:23.022Z,101659.25
2018-07-16T06:56:50.712Z,101654.35
2018-07-16T06:59:18.386Z,101648.62
2018-07-16T07:01:46.398Z,101649.45
2018-07-16T07:04:14.335Z,101651.58
2018-07-16T07:06:42.025Z,101647.13
2018-07-16T07:09:10.062Z,101646.59
2018-07-16T07:11:37.906Z,101648.32
2018-07-16T07:14:05.699Z,101644.31
2018-07-16T07:16:33.923Z,101645.14
2018-07-16T07:19:01.640Z,101646.39
2018-07-16T07:21:29.315Z,101645.42
2018-07-16T07:23:56.973Z,101643.20
2018-07-16T07:26:25.037Z,101637.88
2018-07-16T07:28:53.040Z,101635.14
2018-07-16T07:31:20.708Z,101632.81
2018-07-16T07:33:48.427Z,101637.25
2018-07-16T07:36:16.324Z,101632.77
2018-07-16T07:38:44.491Z,101635.41
2018-07-16T07:41:12.441Z,101632.27
2018-07-16T07:43:40.108Z,101631.75
2018-07-16T07:46:08.061Z,101630.83
2018-07-16T07:48:36.128Z,101625.96
2018-07-16T07:51:04.214Z,101632.05
2018-07-16T07:53:31.873Z,101625.39
2018-07-16T07:55:59.593Z,101626.67
2018-07-16T07:58:27.230Z,101624.42
2018-07-16T08:00:54.916Z,101625.30
2018-07-16T08:03:22.953Z,101622.56
2018-07-16T08:05:56.224Z,101627.42
2018-07-16T08:08:23.951Z,101619.44
2018-07-16T08:10:51.881Z,101622.52
2018-07-16T08:13:19.741Z,101621.63
2018-07-16T08:15:47.524Z,101622.88
2018-07-16T08:18:15.169Z,101618.91
2018-07-16T08:20:42.809Z,101620.53
2018-07-16T08:23:11.110Z,101620.03
2018-07-16T08:25:38.802Z,101620.84
2018-07-16T08:28:06.858Z,101624.31
2018-07-16T08:30:34.574Z,101618.53
2018-07-16T08:33:02.588Z,101617.17
2018-07-16T08:35:30.323Z,101609.22
2018-07-16T08:37:57.966Z,101622.86
2018-07-16T08:40:25.870Z,101616.23
2018-07-16T08:42:53.841Z,101617.07
2018-07-16T08:45:21.820Z,101615.22
2018-07-16T08:47:49.513Z,101611.67
2018-07-16T08:50:18.767Z,101613.40
2018-07-16T08:52:46.800Z,101611.15
2018-07-16T08:55:14.434Z,101611.09
2018-07-16T08:57:42.187Z,101607.53
2018-07-16T09:00:09.945Z,101605.76
2018-07-16T09:02:37.606Z,101607.88
2018-07-16T09:05:05.359Z,101599.94
2018-07-16T09:07:33.320Z,101604.34
2018-07-16T09:10:01.274Z,101604.77
2018-07-16T09:12:29.024Z,101606.00
2018-07-16T09:14:56.926Z,101604.63
2018-07-16T09:17:24.643Z,101602.81
2018-07-16T09:19:52.691Z,101602.33
2018-07-16T09:22:20.729Z,101601.39
2018-07-16T09:24:48.352Z,101599.53
2018-07-16T09:27:15.985Z,101594.63
2018-07-16T09:29:43.601Z,101598.55
2018-07-16T09:32:11.385Z,101593.20
2018-07-16T09:34:39.279Z,101592.77
2018-07-16T09:37:06.922Z,101595.75
2018-07-16T09:39:34.606Z,101600.97
2018-07-16T09:42:02.316Z,101598.27
2018-07-16T09:44:30.111Z,101596.89
2018-07-16T09:46:58.170Z,101595.52
2018-07-16T09:49:25.902Z,101598.96
2018-07-16T09:51:53.537Z,101598.06
2018-07-16T09:54:21.189Z,101592.72
2018-07-16T09:56:48.868Z,101590.91
2018-07-16T09:59:16.779Z,101583.84
2018-07-16T10:01:48.815Z,101585.11
2018-07-16T10:04:16.534Z,101587.67
2018-07-16T10:06:44.214Z,101586.73
2018-07-16T10:09:12.210Z,101582.62
2018-07-16T10:11:40.037Z,101581.69
2018-07-16T10:14:07.969Z,101580.26
2018-07-16T10:16:35.968Z,101581.98
2018-07-16T10:19:03.631Z,101581.48
2018-07-16T10:21:31.670Z,101580.95
2018-07-16T10:23:59.550Z,101583.09
2018-07-16T10:26:27.259Z,101580.30
2018-07-16T10:28:54.881Z,101570.52
2018-07-16T10:31:22.595Z,101573.63
2018-07-16T10:33:50.618Z,101572.35
2018-07-16T10:36:18.501Z,101572.30
2018-07-16T10:38:46.197Z,101563.36
2018-07-16T10:41:14.046Z,101565.91
2018-07-16T10:43:41.720Z,101562.27
2018-07-16T10:46:09.373Z,101563.98
2018-07-16T10:48:37.071Z,101564.36
2018-07-16T10:51:04.987Z,101557.69
2018-07-16T10:53:32.624Z,101556.64
2018-07-16T10:56:00.567Z,101558.73
2018-07-16T10:58:28.198Z,101557.27
2018-07-16T11:00:56.141Z,101551.06
2018-07-16T11:03:24.220Z,101554.45
2018-07-16T11:05:52.236Z,101549.48
2018-07-16T11:08:19.959Z,101540.98
2018-07-16T11:10:48.299Z,101539.55
2018-07-16T11:13:15.977Z,101538.11
2018-07-16T11:15:43.941Z,101531.33
2018-07-16T11:18:11.605Z,101539.17
2018-07-16T11:20:39.697Z,101532.88
2018-07-16T11:23:07.690Z,101534.54
2018-07-16T11:25:35.918Z,101534.09
2018-07-16T11:28:03.622Z,101529.52
2018-07-16T11:30:31.341Z,101527.67
2018-07-16T11:32:59.040Z,101526.69
2018-07-16T11:35:26.689Z,101528.41
2018-07-16T11:37:54.348Z,101524.76
2018-07-16T11:40:22.009Z,101514.09
2018-07-16T11:42:49.668Z,101517.08
2018-07-16T11:45:17.319Z,101510.84
2018-07-16T11:47:45.361Z,101513.37
2018-07-16T11:50:12.997Z,101508.84
2018-07-16T11:52:40.988Z,101505.13
2018-07-16T11:55:08.777Z,101510.77
2018-07-16T11:57:36.726Z,101503.66
2018-07-16T12:00:04.410Z,101498.69
2018-07-16T12:02:32.074Z,101492.38
2018-07-16T12:04:59.800Z,101500.61
2018-07-16T12:07:27.686Z,101491.66
2018-07-16T12:09:55.847Z,101489.27
2018-07-16T12:12:23.945Z,101484.28
2018-07-16T12:14:51.548Z,101487.75
2018-07-16T12:17:19.278Z,101485.00
2018-07-16T12:19:46.978Z,101485.75
2018-07-16T12:22:14.703Z,101479.38
2018-07-16T12:24:42.506Z,101478.77
2018-07-16T12:27:10.137Z,101473.78
2018-07-16T12:29:37.878Z,101472.66
2018-07-16T12:32:06.137Z,101465.34
2018-07-16T12:34:34.859Z,101466.54
2018-07-16T12:37:02.549Z,101472.75
2018-07-16T12:39:30.212Z,101469.20
2018-07-16T12:41:58.112Z,101476.61
2018-07-16T12:44:25.891Z,101467.19
2018-07-16T12:46:54.217Z,101470.48
2018-07-16T12:49:22.333Z,101464.11
2018-07-16T12:51:50.260Z,101462.69
2018-07-16T12:54:17.967Z,101459.41
2018-07-16T12:56:45.956Z,101455.88
2018-07-16T12:59:13.936Z,101452.70
2018-07-16T13:01:41.597Z,101447.77
2018-07-16T13:04:09.577Z,101450.37
2018-07-16T13:06:37.496Z,101449.75
2018-07-16T13:09:07.413Z,101446.57
2018-07-16T13:11:35.522Z,101443.74
2018-07-16T13:14:03.216Z,101438.30
2018-07-16T13:16:30.908Z,101441.59
2018-07-16T13:18:59.195Z,101437.86
2018-07-16T13:21:26.828Z,101437.72
2018-07-16T13:23:54.861Z,101428.35
2018-07-16T13:26:22.514Z,101425.06
2018-07-16T13:28:50.262Z,101425.84
2018-07-16T13:31:18.228Z,101423.05
2018-07-16T13:33:46.420Z,101419.86
2018-07-16T13:36:14.129Z,101411.82
2018-07-16T13:38:42.064Z,101409.86
2018-07-16T13:41:09.754Z,101415.42
2018-07-16T13:43:38.094Z,101412.14
2018-07-16T13:46:06.215Z,101405.31
2018-07-16T13:48:34.129Z,101402.41
2018-07-16T13:51:01.742Z,101394.12
2018-07-16T13:53:30.102Z,101390.38
2018-07-16T13:55:57.738Z,101389.28
2018-07-16T13:58:25.666Z,101385.53
2018-07-16T14:00:53.318Z,101384.20
2018-07-16T14:03:20.984Z,101385.75
2018-07-16T14:05:48.738Z,101379.34
2018-07-16T14:08:16.728Z,101378.17
2018-07-16T14:10:44.621Z,101378.80
2018-07-16T14:13:12.317Z,101375.20
2018-07-16T14:15:39.987Z,101370.30
2018-07-16T14:18:07.970Z,101375.42
2018-07-16T14:20:35.609Z,101371.30
2018-07-16T14:23:03.294Z,101367.92
2018-07-16T14:25:31.281Z,101369.72
2018-07-16T14:27:59.643Z,101367.91
2018-07-16T14:30:27.673Z,101360.95
2018-07-16T14:32:55.351Z,101366.08
2018-07-16T14:35:23.093Z,101359.80
2018-07-16T14:37:51.034Z,101358.28
2018-07-16T14:40:18.802Z,101363.05
2018-07-16T14:42:46.545Z,101356.35
2018-07-16T14:45:14.204Z,101356.41
2018-07-16T14:47:42.284Z,101352.17
2018-07-16T14:50:09.968Z,101348.89
2018-07-16T14:52:37.928Z,101350.18
2018-07-16T14:55:05.878Z,101348.43
2018-07-16T14:57:33.646Z,101354.55
2018-07-16T15:00:01.323Z,101343.98
2018-07-16T15:02:29.250Z,101349.73
2018-07-16T15:04:56.919Z,101353.98
2018-07-16T15:07:25.148Z,101348.59
2018-07-16T15:09:53.083Z,101348.89
2018-07-16T15:12:20.833Z,101338.05
2018-07-16T15:14:48.905Z,101347.27
2018-07-16T15:17:17.141Z,101337.41
2018-07-16T15:19:45.177Z,101341.42
2018-07-16T15:22:12.821Z,101339.86
2018-07-16T15:24:40.513Z,101338.24
2018-07-16T15:27:09.011Z,101330.53
2018-07-16T15:29:37.018Z,101340.25
2018-07-16T15:32:05.094Z,101327.69
2018-07-16T15:34:33.058Z,101334.33
2018-07-16T15:37:00.886Z,101337.28
2018-07-16T15:39:28.621Z,101336.23
2018-07-16T15:41:56.274Z,101331.93
2018-07-16T15:44:24.290Z,101330.03
2018-07-16T15:46:52.242Z,101325.49
2018-07-16T15:49:20.157Z,101327.66
2018-07-16T15:51:48.234Z,101323.67
2018-07-16T15:54:15.977Z,101324.30
2018-07-16T15:56:43.889Z,101327.74
2018-07-16T15:59:11.703Z,101326.19
2018-07-16T16:01:39.437Z,101323.53
2018-07-16T16:04:07.067Z,101327.44
2018-07-16T16:06:34.753Z,101314.40
2018-07-16T16:09:02.636Z,101314.12
2018-07-16T16:11:30.242Z,101309.77
2018-07-16T16:13:58.196Z,101311.36
2018-07-16T16:16:25.967Z,101309.34
2018-07-16T16:18:53.600Z,101311.52
2018-07-16T16:21:21.306Z,101303.31
2018-07-16T16:23:49.240Z,101306.06
2018-07-16T16:26:17.024Z,101300.38
2018-07-16T16:28:44.638Z,101299.98
2018-07-16T16:31:12.294Z,101302.07
2018-07-16T16:33:39.946Z,101302.81
2018-07-16T16:36:07.908Z,101297.28
2018-07-16T16:38:35.585Z,101300.13
2018-07-16T16:41:03.465Z,101298.36
2018-07-16T16:43:31.146Z,101299.25
2018-07-16T16:45:58.825Z,101301.45
2018-07-16T16:48:26.456Z,101290.16
2018-07-16T16:50:54.122Z,101291.86
2018-07-16T16:53:22.053Z,101293.09
2018-07-16T16:55:49.860Z,101286.62
2018-07-16T16:58:17.764Z,101281.78
2018-07-16T17:00:45.449Z,101291.17
2018-07-16T17:03:13.529Z,101295.17
2018-07-16T17:05:41.251Z,101202.08
2018-07-16T17:08:09.227Z,101287.72
2018-07-16T17:10:36.883Z,101284.69
2018-07-16T17:13:04.575Z,101284.98
2018-07-16T17:15:32.572Z,101286.96
2018-07-16T17:18:00.383Z,101285.06
2018-07-16T17:20:27.998Z,101287.30
2018-07-16T17:22:56.208Z,101288.65
2018-07-16T17:25:24.201Z,101285.53
2018-07-16T17:27:51.892Z,101285.91
2018-07-16T17:30:19.564Z,101285.13
2018-07-16T17:32:47.268Z,101286.93
2018-07-16T17:35:14.909Z,101293.62
2018-07-16T17:37:42.572Z,101287.27
2018-07-16T17:40:10.719Z,101204.42
2018-07-16T17:42:38.628Z,101288.97
2018-07-16T17:45:06.381Z,101288.33
2018-07-16T17:47:34.268Z,101289.57
2018-07-16T17:50:01.926Z,101291.56
2018-07-16T17:52:29.940Z,101291.94
2018-07-16T17:54:57.864Z,101286.97
2018-07-16T17:57:25.541Z,101293.27
2018-07-16T17:59:53.228Z,101297.58
2018-07-16T18:02:21.170Z,101295.56
2018-07-16T18:04:48.829Z,101301.18
2018-07-16T18:07:20.348Z,101301.96
2018-07-16T18:09:48.727Z,101301.86
2018-07-16T18:12:17.150Z,101309.02
2018-07-16T18:14:45.261Z,101307.39
2018-07-16T18:17:13.588Z,101305.91
2018-07-16T18:19:41.298Z,101308.45
2018-07-16T18:22:09.245Z,101308.37
2018-07-16T18:24:36.993Z,101316.88
2018-07-16T18:27:04.669Z,101309.41
2018-07-16T18:29:32.740Z,101312.61
2018-07-16T18:32:00.388Z,101318.66
2018-07-16T18:34:28.868Z,101312.95
2018-07-16T18:36:57.121Z,101323.56
2018-07-16T18:39:24.814Z,101316.98
2018-07-16T18:41:52.886Z,101317.53
2018-07-16T18:44:20.612Z,101315.45
2018-07-16T18:46:48.606Z,101324.57
2018-07-16T18:49:16.631Z,101324.74
2018-07-16T18:51:44.287Z,101334.24
2018-07-16T18:54:11.962Z,101326.13
2018-07-16T18:56:39.607Z,101329.41
2018-07-16T18:59:07.269Z,101325.20
2018-07-16T19:01:35.279Z,101324.91
2018-07-16T19:04:03.275Z,101328.81
2018-07-16T19:06:31.472Z,101329.06
2018-07-16T19:08:59.140Z,101333.31
2018-07-16T19:11:26.776Z,101345.28
2018-07-16T19:13:54.441Z,101342.34
2018-07-16T19:16:22.101Z,101346.09
2018-07-16T19:18:49.987Z,101346.73
2018-07-16T19:21:17.940Z,101347.33
2018-07-16T19:23:46.103Z,101352.58
2018-07-16T19:26:13.746Z,101350.83
2018-07-16T19:28:42.001Z,101352.02
2018-07-16T19:31:09.651Z,101359.39
2018-07-16T19:33:38.686Z,101363.77
2018-07-16T19:36:06.717Z,101366.50
2018-07-16T19:38:34.482Z,101371.44
2018-07-16T19:41:02.107Z,101375.61
2018-07-16T19:43:30.331Z,101370.81
2018-07-16T19:45:57.981Z,101375.66
2018-07-16T19:48:25.663Z,101379.49
2018-07-16T19:50:53.474Z,101377.09
2018-07-16T19:53:21.124Z,101377.41
2018-07-16T19:55:48.847Z,101377.55
2018-07-16T19:58:16.726Z,101372.45
2018-07-16T20:00:44.959Z,101373.65
2018-07-16T20:03:12.579Z,101376.77
2018-07-16T20:05:40.610Z,101378.27
2018-07-16T20:08:08.556Z,101380.69
2018-07-16T20:10:36.294Z,101383.91
2018-07-16T20:13:04.279Z,101387.72
2018-07-16T20:15:32.226Z,101391.01
2018-07-16T20:17:59.963Z,101394.75
2018-07-16T20:20:33.216Z,101392.72
2018-07-16T20:23:01.325Z,101388.07
2018-07-16T20:25:28.943Z,101389.95
2018-07-16T20:27:57.410Z,101383.45
2018-07-16T20:30:25.448Z,101386.67
2018-07-16T20:32:53.191Z,101382.89
2018-07-16T20:35:20.898Z,101382.57
2018-07-16T20:37:48.537Z,101382.64
2018-07-16T20:40:16.313Z,101383.20
2018-07-16T20:42:44.050Z,101381.55
2018-07-16T20:45:11.950Z,101387.80
2018-07-16T20:47:39.564Z,101379.09
2018-07-16T20:50:07.838Z,101382.77
2018-07-16T20:52:35.860Z,101386.43
2018-07-16T20:55:03.814Z,101386.11
2018-07-16T20:57:31.490Z,101379.12
2018-07-16T20:59:59.417Z,101388.94
2018-07-16T21:02:27.417Z,101386.83
2018-07-16T21:04:55.030Z,101387.38
2018-07-16T21:07:22.687Z,101390.56
2018-07-16T21:09:50.406Z,101389.37
2018-07-16T21:12:18.271Z,101388.59
2018-07-16T21:14:45.927Z,101384.67
2018-07-16T21:17:13.658Z,101384.36
2018-07-16T21:19:41.357Z,101391.55
2018-07-16T21:22:09.084Z,101392.06
2018-07-16T21:24:36.729Z,101389.16
2018-07-16T21:27:04.371Z,101387.89
2018-07-16T21:29:32.386Z,101391.94
2018-07-16T21:32:00.613Z,101392.03
2018-07-16T21:34:28.307Z,101394.38
2018-07-16T21:36:56.396Z,101299.26
2018-07-16T21:39:24.036Z,101398.48
2018-07-16T21:41:51.766Z,101393.69
2018-07-16T21:44:19.813Z,101396.89
2018-07-16T21:46:47.756Z,101394.76
2018-07-16T21:49:15.483Z,101393.59
2018-07-16T21:51:43.142Z,101392.78
2018-07-16T21:54:11.112Z,101396.92
2018-07-16T21:56:39.013Z,101395.66
2018-07-16T21:59:06.664Z,101390.94
2018-07-16T22:01:34.809Z,101393.59
2018-07-16T22:04:02.479Z,101389.77
2018-07-16T22:06:30.109Z,101390.77
2018-07-16T22:08:57.794Z,101394.33
2018-07-16T22:11:25.705Z,101393.55
2018-07-16T22:13:53.970Z,101396.23
2018-07-16T22:16:21.862Z,101398.50
2018-07-16T22:18:49.551Z,101401.27
2018-07-16T22:21:17.209Z,101397.84
2018-07-16T22:23:45.099Z,101397.42
2018-07-16T22:26:12.785Z,101352.77
2018-07-16T22:28:40.451Z,101400.23
2018-07-16T22:31:08.112Z,101402.06
2018-07-16T22:33:35.777Z,101399.09
2018-07-16T22:36:04.003Z,101396.05
2018-07-16T22:38:31.944Z,101398.77
2018-07-16T22:40:59.625Z,101399.76
2018-07-16T22:43:27.899Z,101402.86
2018-07-16T22:45:55.548Z,101399.04
2018-07-16T22:48:23.234Z,101399.55
2018-07-16T22:50:50.886Z,101403.53
2018-07-16T22:53:18.538Z,101401.48
2018-07-16T22:55:46.194Z,101398.89
2018-07-16T22:58:13.869Z,101396.78
2018-07-16T23:00:42.091Z,101398.63
2018-07-16T23:03:09.962Z,101398.23
2018-07-16T23:05:37.907Z,101397.03
2018-07-16T23:08:05.803Z,101401.01
2018-07-16T23:10:33.792Z,101402.87
2018-07-16T23:13:01.433Z,101397.19
2018-07-16T23:15:29.601Z,101391.94
2018-07-16T23:17:57.330Z,101397.69
2018-07-16T23:20:24.997Z,101386.31
2018-07-16T23:22:53.954Z,101386.82
2018-07-16T23:25:21.995Z,101392.19
2018-07-16T23:27:50.252Z,101362.93
2018-07-16T23:30:17.895Z,101390.52
2018-07-16T23:32:46.037Z,101391.91
2018-07-16T23:35:14.501Z,101390.31
2018-07-16T23:37:42.143Z,101380.31
2018-07-16T23:40:09.862Z,101383.90
2018-07-16T23:42:37.489Z,101386.55
2018-07-16T23:45:05.449Z,101384.83
2018-07-16T23:47:33.057Z,101389.25
2018-07-16T23:50:01.358Z,101388.86
2018-07-16T23:52:29.676Z,101387.17
2018-07-16T23:54:57.349Z,101390.27
2018-07-16T23:57:25.023Z,101393.41
2018-07-16T23:59:52.932Z,101393.86
